createdAt,value
2017-03-14T00:00:06.738Z,1022.76
2017-03-14T00:01:17.025Z,1022.8
2017-03-14T00:02:27.712Z,1022.76
2017-03-14T00:03:38.652Z,1022.73
2017-03-14T00:04:49.344Z,1022.75
2017-03-14T00:05:59.301Z,1022.74
2017-03-14T00:07:09.594Z,1022.74
2017-03-14T00:08:19.488Z,1022.71
2017-03-14T00:09:29.650Z,1022.77
2017-03-14T00:10:39.949Z,1022.79
2017-03-14T00:11:49.453Z,1022.84
2017-03-14T00:12:58.966Z,1022.81
2017-03-14T00:14:09.263Z,1022.78
2017-03-14T00:15:20.205Z,1022.75
2017-03-14T00:16:30.502Z,1022.7
2017-03-14T00:17:40.397Z,1022.73
2017-03-14T00:18:50.317Z,1022.69
2017-03-14T00:20:01.014Z,1022.65
2017-03-14T00:21:11.567Z,1022.67
2017-03-14T00:22:21.465Z,1022.65
2017-03-14T00:23:31.348Z,1022.72
2017-03-14T00:24:41.240Z,1022.72
2017-03-14T00:25:51.533Z,1022.71
2017-03-14T00:27:02.072Z,1022.73
2017-03-14T00:28:11.978Z,1022.75
2017-03-14T00:29:22.271Z,1022.77
2017-03-14T00:30:32.566Z,1022.83
2017-03-14T00:31:42.848Z,1022.86
2017-03-14T00:32:53.389Z,1022.84
2017-03-14T00:34:03.709Z,1022.83
2017-03-14T00:35:13.622Z,1022.84
2017-03-14T00:36:24.319Z,1022.83
2017-03-14T00:37:34.247Z,1022.84
2017-03-14T00:38:44.405Z,1022.85
2017-03-14T00:39:55.112Z,1022.87
2017-03-14T00:41:05.421Z,1022.82
2017-03-14T00:42:15.705Z,1022.79
2017-03-14T00:43:26.001Z,1022.78
2017-03-14T00:44:36.936Z,1022.75
2017-03-14T00:45:47.637Z,1022.75
2017-03-14T00:46:58.333Z,1022.77
2017-03-14T00:48:08.627Z,1022.82
2017-03-14T00:49:18.918Z,1022.75
2017-03-14T00:50:28.672Z,1022.81
2017-03-14T00:51:38.968Z,1022.77
2017-03-14T00:52:49.669Z,1022.74
2017-03-14T00:54:00.355Z,1022.73
2017-03-14T00:55:11.035Z,1022.68
2017-03-14T00:56:21.967Z,1022.67
2017-03-14T00:57:31.875Z,1022.6
2017-03-14T00:58:41.369Z,1022.61
2017-03-14T00:59:50.872Z,1022.58
2017-03-14T01:01:01.170Z,1022.6
2017-03-14T01:02:12.107Z,1022.62
2017-03-14T01:03:22.400Z,1022.58
2017-03-14T01:04:33.090Z,1022.57
2017-03-14T01:05:42.979Z,1022.52
2017-03-14T01:06:53.269Z,1022.51
2017-03-14T01:08:03.027Z,1022.52
2017-03-14T01:09:13.321Z,1022.53
2017-03-14T01:10:23.234Z,1022.52
2017-03-14T01:11:33.129Z,1022.53
2017-03-14T01:12:43.422Z,1022.55
2017-03-14T01:13:53.164Z,1022.56
2017-03-14T01:15:02.669Z,1022.57
2017-03-14T01:16:12.573Z,1022.57
2017-03-14T01:17:22.477Z,1022.56
2017-03-14T01:18:32.752Z,1022.54
2017-03-14T01:19:43.311Z,1022.52
2017-03-14T01:20:53.595Z,1022.57
2017-03-14T01:22:03.105Z,1022.54
2017-03-14T01:23:13.395Z,1022.62
2017-03-14T01:24:23.686Z,1022.63
2017-03-14T01:25:34.630Z,1022.64
2017-03-14T01:26:45.315Z,1022.62
2017-03-14T01:27:55.233Z,1022.61
2017-03-14T01:29:05.926Z,1022.56
2017-03-14T01:30:15.835Z,1022.57
2017-03-14T01:31:26.773Z,1022.57
2017-03-14T01:32:36.668Z,1022.57
2017-03-14T01:33:47.359Z,1022.6
2017-03-14T01:34:57.290Z,1022.62
2017-03-14T01:36:07.573Z,1022.63
2017-03-14T01:37:18.508Z,1022.67
2017-03-14T01:38:28.809Z,1022.64
2017-03-14T01:39:38.655Z,1022.68
2017-03-14T01:40:48.557Z,1022.66
2017-03-14T01:41:58.480Z,1022.69
2017-03-14T01:43:09.013Z,1022.71
2017-03-14T01:44:18.908Z,1022.74
2017-03-14T01:45:29.207Z,1022.76
2017-03-14T01:46:39.501Z,1022.77
2017-03-14T01:47:49.796Z,1022.77
2017-03-14T01:49:00.355Z,1022.78
2017-03-14T01:50:11.039Z,1022.73
2017-03-14T01:51:21.336Z,1022.72
2017-03-14T01:52:32.010Z,1022.75
2017-03-14T01:53:42.313Z,1022.73
2017-03-14T01:54:52.072Z,1022.75
2017-03-14T01:56:02.375Z,1022.78
2017-03-14T01:57:12.677Z,1022.78
2017-03-14T01:58:22.992Z,1022.81
2017-03-14T01:59:32.493Z,1022.77
2017-03-14T02:00:42.643Z,1022.75
2017-03-14T02:01:53.345Z,1022.74
2017-03-14T02:03:03.239Z,1022.78
2017-03-14T02:04:13.532Z,1022.8
2017-03-14T02:05:24.322Z,1022.77
2017-03-14T02:06:35.262Z,1022.74
2017-03-14T02:07:45.554Z,1022.72
2017-03-14T02:08:55.846Z,1022.73
2017-03-14T02:10:06.141Z,1022.69
2017-03-14T02:11:16.837Z,1022.68
2017-03-14T02:12:27.771Z,1022.73
2017-03-14T02:13:38.082Z,1022.71
2017-03-14T02:14:48.379Z,1022.71
2017-03-14T02:15:58.675Z,1022.73
2017-03-14T02:17:08.974Z,1022.75
2017-03-14T02:18:19.917Z,1022.79
2017-03-14T02:19:30.201Z,1022.8
2017-03-14T02:20:40.493Z,1022.82
2017-03-14T02:21:50.385Z,1022.84
2017-03-14T02:23:00.291Z,1022.83
2017-03-14T02:24:10.828Z,1022.87
2017-03-14T02:25:20.719Z,1022.84
2017-03-14T02:26:31.017Z,1022.79
2017-03-14T02:27:40.914Z,1022.75
2017-03-14T02:28:50.815Z,1022.72
2017-03-14T02:30:00.956Z,1022.7
2017-03-14T02:31:11.645Z,1022.71
2017-03-14T02:32:21.932Z,1022.73
2017-03-14T02:33:31.431Z,1022.75
2017-03-14T02:34:41.331Z,1022.68
2017-03-14T02:35:52.258Z,1022.73
2017-03-14T02:37:02.160Z,1022.71
2017-03-14T02:38:12.061Z,1022.71
2017-03-14T02:39:22.749Z,1022.7
2017-03-14T02:40:32.649Z,1022.73
2017-03-14T02:41:42.844Z,1022.73
2017-03-14T02:42:53.548Z,1022.75
2017-03-14T02:44:04.235Z,1022.76
2017-03-14T02:45:14.914Z,1022.75
2017-03-14T02:46:25.197Z,1022.81
2017-03-14T02:47:36.138Z,1022.84
2017-03-14T02:48:46.037Z,1022.86
2017-03-14T02:49:56.320Z,1022.9
2017-03-14T02:51:06.603Z,1022.89
2017-03-14T02:52:16.506Z,1022.92
2017-03-14T02:53:27.101Z,1022.93
2017-03-14T02:54:37.000Z,1022.96
2017-03-14T02:55:47.677Z,1022.96
2017-03-14T02:56:57.181Z,1022.97
2017-03-14T02:58:07.867Z,1022.94
2017-03-14T02:59:18.418Z,1022.93
2017-03-14T03:00:28.714Z,1022.93
2017-03-14T03:01:39.408Z,1023
2017-03-14T03:02:49.705Z,1023.01
2017-03-14T03:04:00.006Z,1023
2017-03-14T03:05:10.963Z,1022.98
2017-03-14T03:06:20.070Z,1023.02
2017-03-14T03:07:30.769Z,1023
2017-03-14T03:08:41.058Z,1023
2017-03-14T03:09:50.963Z,1023.01
2017-03-14T03:11:01.507Z,1022.96
2017-03-14T03:12:11.803Z,1022.94
2017-03-14T03:13:22.485Z,1022.98
2017-03-14T03:14:32.811Z,1022.94
2017-03-14T03:15:42.720Z,1022.95
2017-03-14T03:16:53.263Z,1022.99
2017-03-14T03:18:03.158Z,1022.92
2017-03-14T03:19:13.444Z,1022.95
2017-03-14T03:20:22.952Z,1022.97
2017-03-14T03:21:33.242Z,1022.96
2017-03-14T03:22:44.177Z,1022.97
2017-03-14T03:23:54.473Z,1023.01
2017-03-14T03:25:04.777Z,1022.97
2017-03-14T03:26:14.675Z,1022.97
2017-03-14T03:27:24.580Z,1023
2017-03-14T03:28:35.531Z,1022.97
2017-03-14T03:29:45.813Z,1022.92
2017-03-14T03:30:56.105Z,1022.93
2017-03-14T03:32:06.800Z,1022.94
2017-03-14T03:33:17.478Z,1022.89
2017-03-14T03:34:28.418Z,1022.89
2017-03-14T03:35:38.709Z,1022.9
2017-03-14T03:36:49.005Z,1022.9
2017-03-14T03:37:59.297Z,1022.94
2017-03-14T03:39:09.588Z,1022.95
2017-03-14T03:40:20.142Z,1022.92
2017-03-14T03:41:30.837Z,1022.9
2017-03-14T03:42:41.137Z,1022.87
2017-03-14T03:43:51.435Z,1022.88
2017-03-14T03:45:00.945Z,1022.86
2017-03-14T03:46:11.120Z,1022.88
2017-03-14T03:47:21.406Z,1022.84
2017-03-14T03:48:31.698Z,1022.87
2017-03-14T03:49:41.993Z,1022.85
2017-03-14T03:50:52.294Z,1022.85
2017-03-14T03:52:02.452Z,1022.87
2017-03-14T03:53:11.961Z,1022.89
2017-03-14T03:54:22.263Z,1022.88
2017-03-14T03:55:32.559Z,1022.88
2017-03-14T03:56:42.469Z,1022.93
2017-03-14T03:57:53.401Z,1022.96
2017-03-14T03:59:03.295Z,1022.92
2017-03-14T04:00:13.185Z,1022.95
2017-03-14T04:01:23.071Z,1022.95
2017-03-14T04:02:33.369Z,1022.94
2017-03-14T04:03:43.131Z,1022.91
2017-03-14T04:04:53.824Z,1022.9
2017-03-14T04:06:03.721Z,1022.92
2017-03-14T04:07:14.011Z,1022.9
2017-03-14T04:08:24.310Z,1022.94
2017-03-14T04:09:34.466Z,1022.91
2017-03-14T04:10:45.147Z,1022.95
2017-03-14T04:11:55.046Z,1022.94
2017-03-14T04:13:04.962Z,1023
2017-03-14T04:14:14.464Z,1023
2017-03-14T04:15:25.003Z,1023.01
2017-03-14T04:16:35.290Z,1023.03
2017-03-14T04:17:45.211Z,1022.99
2017-03-14T04:18:55.574Z,1023.02
2017-03-14T04:20:05.861Z,1022.99
2017-03-14T04:21:16.008Z,1023
2017-03-14T04:22:26.695Z,1022.96
2017-03-14T04:23:36.984Z,1023.01
2017-03-14T04:24:47.681Z,1023
2017-03-14T04:25:57.983Z,1023
2017-03-14T04:27:08.519Z,1023.02
2017-03-14T04:28:18.812Z,1023.03
2017-03-14T04:29:29.111Z,1023.03
2017-03-14T04:30:39.393Z,1023.05
2017-03-14T04:31:49.693Z,1023.04
2017-03-14T04:32:59.845Z,1023.09
2017-03-14T04:34:10.530Z,1023.11
2017-03-14T04:35:21.250Z,1023.08
2017-03-14T04:36:31.144Z,1023.1
2017-03-14T04:37:41.032Z,1023.13
2017-03-14T04:38:51.171Z,1023.09
2017-03-14T04:40:01.872Z,1023.2
2017-03-14T04:41:12.173Z,1023.19
2017-03-14T04:42:22.061Z,1023.2
2017-03-14T04:43:31.968Z,1023.18
2017-03-14T04:44:42.523Z,1023.2
2017-03-14T04:45:52.419Z,1023.17
2017-03-14T04:47:02.723Z,1023.21
2017-03-14T04:48:12.619Z,1023.18
2017-03-14T04:49:22.907Z,1023.17
2017-03-14T04:50:33.842Z,1023.19
2017-03-14T04:51:44.135Z,1023.21
2017-03-14T04:52:54.421Z,1023.26
2017-03-14T04:54:04.717Z,1023.25
2017-03-14T04:55:15.401Z,1023.3
2017-03-14T04:56:26.324Z,1023.36
2017-03-14T04:57:36.622Z,1023.36
2017-03-14T04:58:47.312Z,1023.37
2017-03-14T04:59:57.605Z,1023.35
2017-03-14T05:01:06.717Z,1023.41
2017-03-14T05:02:16.904Z,1023.42
2017-03-14T05:03:26.811Z,1023.43
2017-03-14T05:04:37.112Z,1023.4
2017-03-14T05:05:47.010Z,1023.46
2017-03-14T05:06:57.311Z,1023.51
2017-03-14T05:08:07.477Z,1023.55
2017-03-14T05:09:17.378Z,1023.5
2017-03-14T05:10:28.066Z,1023.55
2017-03-14T05:11:38.388Z,1023.55
2017-03-14T05:12:48.315Z,1023.51
2017-03-14T05:13:59.278Z,1023.56
2017-03-14T05:15:09.832Z,1023.54
2017-03-14T05:16:20.179Z,1023.52
2017-03-14T05:17:30.890Z,1023.55
2017-03-14T05:18:40.787Z,1023.61
2017-03-14T05:19:51.331Z,1023.63
2017-03-14T05:21:01.232Z,1023.68
2017-03-14T05:22:11.518Z,1023.68
2017-03-14T05:23:22.198Z,1023.68
2017-03-14T05:24:32.097Z,1023.71
2017-03-14T05:25:42.254Z,1023.69
2017-03-14T05:26:52.550Z,1023.68
2017-03-14T05:28:03.242Z,1023.75
2017-03-14T05:29:13.545Z,1023.72
2017-03-14T05:30:24.233Z,1023.79
2017-03-14T05:31:34.415Z,1023.77
2017-03-14T05:32:44.714Z,1023.8
2017-03-14T05:33:55.018Z,1023.8
2017-03-14T05:35:04.908Z,1023.8
2017-03-14T05:36:15.595Z,1023.79
2017-03-14T05:37:25.729Z,1023.8
2017-03-14T05:38:35.616Z,1023.82
2017-03-14T05:39:45.524Z,1023.87
2017-03-14T05:40:55.804Z,1023.81
2017-03-14T05:42:06.083Z,1023.86
2017-03-14T05:43:16.623Z,1023.88
2017-03-14T05:44:26.920Z,1023.9
2017-03-14T05:45:37.219Z,1023.92
2017-03-14T05:46:47.909Z,1023.87
2017-03-14T05:47:59.100Z,1023.92
2017-03-14T05:49:10.023Z,1023.94
2017-03-14T05:50:20.722Z,1023.9
2017-03-14T05:51:31.005Z,1023.96
2017-03-14T05:52:41.691Z,1023.97
2017-03-14T05:53:51.587Z,1024
2017-03-14T05:55:02.129Z,1024.01
2017-03-14T05:56:11.629Z,1024.03
2017-03-14T05:57:21.913Z,1024.05
2017-03-14T05:58:31.839Z,1024.1
2017-03-14T05:59:42.531Z,1024.11
2017-03-14T06:00:53.078Z,1024.12
2017-03-14T06:02:03.767Z,1024.19
2017-03-14T06:03:13.668Z,1024.22
2017-03-14T06:04:23.174Z,1024.27
2017-03-14T06:05:33.100Z,1024.29
2017-03-14T06:06:43.663Z,1024.31
2017-03-14T06:07:53.960Z,1024.3
2017-03-14T06:09:04.258Z,1024.29
2017-03-14T06:10:14.962Z,1024.3
2017-03-14T06:11:25.271Z,1024.3
2017-03-14T06:12:35.443Z,1024.36
2017-03-14T06:13:45.346Z,1024.33
2017-03-14T06:14:55.693Z,1024.36
2017-03-14T06:16:05.616Z,1024.36
2017-03-14T06:17:15.907Z,1024.38
2017-03-14T06:18:26.834Z,1024.4
2017-03-14T06:19:37.133Z,1024.42
2017-03-14T06:20:47.985Z,1024.41
2017-03-14T06:21:58.678Z,1024.41
2017-03-14T06:23:09.377Z,1024.43
2017-03-14T06:24:20.302Z,1024.43
2017-03-14T06:25:31.004Z,1024.47
2017-03-14T06:26:41.694Z,1024.46
2017-03-14T06:27:52.046Z,1024.49
2017-03-14T06:29:02.771Z,1024.44
2017-03-14T06:30:13.716Z,1024.49
2017-03-14T06:31:24.408Z,1024.47
2017-03-14T06:32:35.103Z,1024.54
2017-03-14T06:33:45.002Z,1024.52
2017-03-14T06:34:54.964Z,1024.48
2017-03-14T06:36:05.516Z,1024.55
2017-03-14T06:37:15.823Z,1024.56
2017-03-14T06:38:26.520Z,1024.54
2017-03-14T06:39:37.228Z,1024.6
2017-03-14T06:40:47.937Z,1024.62
2017-03-14T06:41:58.489Z,1024.62
2017-03-14T06:43:08.805Z,1024.62
2017-03-14T06:44:19.503Z,1024.57
2017-03-14T06:45:29.399Z,1024.59
2017-03-14T06:46:40.095Z,1024.53
2017-03-14T06:47:50.633Z,1024.5
2017-03-14T06:49:00.542Z,1024.47
2017-03-14T06:50:10.449Z,1024.51
2017-03-14T06:51:21.139Z,1024.52
2017-03-14T06:52:31.436Z,1024.53
2017-03-14T06:53:41.595Z,1024.55
2017-03-14T06:54:51.506Z,1024.57
2017-03-14T06:56:01.404Z,1024.55
2017-03-14T06:57:10.904Z,1024.49
2017-03-14T06:58:21.675Z,1024.47
2017-03-14T06:59:32.607Z,1024.5
2017-03-14T07:00:42.912Z,1024.48
2017-03-14T07:01:53.308Z,1024.49
2017-03-14T07:03:04.108Z,1024.49
2017-03-14T07:04:14.466Z,1024.46
2017-03-14T07:05:25.423Z,1024.43
2017-03-14T07:06:35.744Z,1024.43
2017-03-14T07:07:46.446Z,1024.43
2017-03-14T07:08:56.345Z,1024.4
2017-03-14T07:10:07.325Z,1024.37
2017-03-14T07:11:17.884Z,1024.38
2017-03-14T07:12:28.216Z,1024.39
2017-03-14T07:13:38.930Z,1024.41
2017-03-14T07:14:49.631Z,1024.37
2017-03-14T07:16:00.354Z,1024.42
2017-03-14T07:17:10.149Z,1024.41
2017-03-14T07:18:20.459Z,1024.4
2017-03-14T07:19:30.754Z,1024.39
2017-03-14T07:20:41.043Z,1024.45
2017-03-14T07:21:51.332Z,1024.5
2017-03-14T07:23:01.888Z,1024.45
2017-03-14T07:24:12.183Z,1024.46
2017-03-14T07:25:22.485Z,1024.48
2017-03-14T07:26:32.798Z,1024.45
2017-03-14T07:27:43.497Z,1024.49
2017-03-14T07:28:54.063Z,1024.43
2017-03-14T07:30:04.757Z,1024.48
2017-03-14T07:31:15.490Z,1024.5
2017-03-14T07:32:26.209Z,1024.51
2017-03-14T07:33:36.105Z,1024.5
2017-03-14T07:34:46.678Z,1024.51
2017-03-14T07:35:57.372Z,1024.48
2017-03-14T07:37:08.114Z,1024.42
2017-03-14T07:38:18.428Z,1024.39
2017-03-14T07:39:28.327Z,1024.35
2017-03-14T07:40:39.143Z,1024.35
2017-03-14T07:41:48.644Z,1024.41
2017-03-14T07:42:58.943Z,1024.39
2017-03-14T07:44:09.650Z,1024.44
2017-03-14T07:45:19.155Z,1024.47
2017-03-14T07:46:30.113Z,1024.51
2017-03-14T07:47:40.799Z,1024.52
2017-03-14T07:48:51.512Z,1024.53
2017-03-14T07:50:02.220Z,1024.48
2017-03-14T07:51:12.508Z,1024.44
2017-03-14T07:52:23.473Z,1024.43
2017-03-14T07:53:33.035Z,1024.49
2017-03-14T07:54:43.618Z,1024.59
2017-03-14T07:55:54.343Z,1024.59
2017-03-14T07:57:04.242Z,1024.61
2017-03-14T07:58:14.809Z,1024.58
2017-03-14T07:59:25.150Z,1024.6
2017-03-14T08:00:35.072Z,1024.61
2017-03-14T08:01:45.028Z,1024.67
2017-03-14T08:02:54.956Z,1024.71
2017-03-14T08:04:05.911Z,1024.8
2017-03-14T08:05:15.850Z,1024.86
2017-03-14T08:06:26.217Z,1024.89
2017-03-14T08:07:36.536Z,1024.88
2017-03-14T08:08:47.249Z,1024.87
2017-03-14T08:09:58.225Z,1024.86
2017-03-14T08:11:08.578Z,1024.8
2017-03-14T08:12:18.498Z,1024.81
2017-03-14T08:13:28.847Z,1024.8
2017-03-14T08:14:39.149Z,1024.85
2017-03-14T08:15:50.122Z,1024.96
2017-03-14T08:17:00.842Z,1025.08
2017-03-14T08:18:11.548Z,1025.12
2017-03-14T08:19:22.236Z,1025.1
2017-03-14T08:20:32.940Z,1025.11
2017-03-14T08:21:43.901Z,1025.05
2017-03-14T08:22:53.804Z,1025.1
2017-03-14T08:24:04.143Z,1025.09
2017-03-14T08:25:14.043Z,1025.1
2017-03-14T08:26:24.745Z,1025.23
2017-03-14T08:27:34.905Z,1025.23
2017-03-14T08:28:45.224Z,1025.13
2017-03-14T08:29:55.129Z,1025.1
2017-03-14T08:31:05.436Z,1025.1
2017-03-14T08:32:15.732Z,1025.21
2017-03-14T08:33:26.679Z,1025.24
2017-03-14T08:34:36.585Z,1025.11
2017-03-14T08:35:47.289Z,1025.22
2017-03-14T08:36:57.988Z,1025.27
2017-03-14T08:38:08.701Z,1025.26
2017-03-14T08:39:19.644Z,1025.25
2017-03-14T08:40:30.407Z,1025.32
2017-03-14T08:41:41.105Z,1025.33
2017-03-14T08:42:51.412Z,1025.39
2017-03-14T08:44:02.128Z,1025.4
2017-03-14T08:45:12.297Z,1025.44
2017-03-14T08:46:22.994Z,1025.44
2017-03-14T08:47:33.711Z,1025.39
2017-03-14T08:48:43.613Z,1025.37
2017-03-14T08:49:53.946Z,1025.35
2017-03-14T08:51:04.887Z,1025.3
2017-03-14T08:52:14.408Z,1025.36
2017-03-14T08:53:24.346Z,1025.35
2017-03-14T08:54:35.087Z,1025.34
2017-03-14T08:55:45.414Z,1025.3
2017-03-14T08:56:56.380Z,1025.27
2017-03-14T08:58:07.104Z,1025.26
2017-03-14T08:59:17.406Z,1025.31
2017-03-14T09:00:27.746Z,1025.34
2017-03-14T09:01:38.479Z,1025.33
2017-03-14T09:02:49.048Z,1025.29
2017-03-14T09:03:59.790Z,1025.31
2017-03-14T09:05:10.136Z,1025.33
2017-03-14T09:06:20.860Z,1025.29
2017-03-14T09:07:31.588Z,1025.31
2017-03-14T09:08:41.752Z,1025.33
2017-03-14T09:09:52.492Z,1025.31
2017-03-14T09:11:03.205Z,1025.3
2017-03-14T09:12:13.205Z,1025.26
2017-03-14T09:13:23.508Z,1025.22
2017-03-14T09:14:34.086Z,1025.21
2017-03-14T09:15:44.394Z,1025.23
2017-03-14T09:16:55.128Z,1025.21
2017-03-14T09:18:05.866Z,1025.15
2017-03-14T09:19:16.178Z,1025.17
2017-03-14T09:20:26.763Z,1025.11
2017-03-14T09:21:37.364Z,1025.1
2017-03-14T09:22:48.110Z,1025.04
2017-03-14T09:23:58.860Z,1025.04
2017-03-14T09:25:09.178Z,1024.99
2017-03-14T09:26:20.072Z,1025
2017-03-14T09:27:30.788Z,1024.98
2017-03-14T09:28:41.646Z,1024.97
2017-03-14T09:29:51.555Z,1024.92
2017-03-14T09:31:02.246Z,1024.95
2017-03-14T09:32:13.215Z,1025.01
2017-03-14T09:33:23.926Z,1024.95
2017-03-14T09:34:33.837Z,1024.91
2017-03-14T09:35:44.561Z,1024.88
2017-03-14T09:36:55.264Z,1024.9
2017-03-14T09:38:06.261Z,1024.89
2017-03-14T09:39:16.188Z,1024.89
2017-03-14T09:40:26.903Z,1024.86
2017-03-14T09:41:37.846Z,1024.82
2017-03-14T09:42:48.166Z,1024.89
2017-03-14T09:43:58.746Z,1024.94
2017-03-14T09:45:09.465Z,1024.95
2017-03-14T09:46:20.163Z,1024.99
2017-03-14T09:47:30.491Z,1024.96
2017-03-14T09:48:41.192Z,1024.98
2017-03-14T09:49:51.385Z,1025.01
2017-03-14T09:51:01.756Z,1025.05
2017-03-14T09:52:12.091Z,1025.02
2017-03-14T09:53:22.820Z,1025.02
2017-03-14T09:54:33.518Z,1025.01
2017-03-14T09:55:44.085Z,1025.07
2017-03-14T09:56:54.641Z,1025.03
2017-03-14T09:58:05.834Z,1025.05
2017-03-14T09:59:16.133Z,1025
2017-03-14T10:00:26.538Z,1025.01
2017-03-14T10:01:37.528Z,1024.98
2017-03-14T10:02:48.246Z,1025.03
2017-03-14T10:03:58.788Z,1025.02
2017-03-14T10:05:09.120Z,1025.03
2017-03-14T10:06:19.852Z,1025
2017-03-14T10:07:30.808Z,1025.04
2017-03-14T10:08:41.517Z,1025.03
2017-03-14T10:09:52.239Z,1025.04
2017-03-14T10:11:02.536Z,1025.05
2017-03-14T10:12:12.873Z,1025.08
2017-03-14T10:13:23.851Z,1025.01
2017-03-14T10:14:34.556Z,1025.03
2017-03-14T10:15:44.468Z,1025.01
2017-03-14T10:16:54.779Z,1025.03
2017-03-14T10:18:05.085Z,1025.02
2017-03-14T10:19:14.995Z,1025.05
2017-03-14T10:20:25.341Z,1025.08
2017-03-14T10:21:35.651Z,1025.1
2017-03-14T10:22:45.959Z,1025.08
2017-03-14T10:23:55.609Z,1025.09
2017-03-14T10:25:05.574Z,1025.1
2017-03-14T10:26:15.891Z,1025.14
2017-03-14T10:27:26.198Z,1025.09
2017-03-14T10:28:36.186Z,1025.06
2017-03-14T10:29:46.415Z,1025.11
2017-03-14T10:30:56.405Z,1025.1
2017-03-14T10:32:05.787Z,1025.09
2017-03-14T10:33:16.068Z,1025.12
2017-03-14T10:34:26.046Z,1025.03
2017-03-14T10:35:36.257Z,1025.04
2017-03-14T10:36:46.232Z,1025.05
2017-03-14T10:37:56.526Z,1025.05
2017-03-14T10:39:06.192Z,1025.09
2017-03-14T10:40:16.142Z,1025.04
2017-03-14T10:41:26.684Z,1025.06
2017-03-14T10:42:36.641Z,1025.19
2017-03-14T10:43:46.596Z,1025.09
2017-03-14T10:44:56.889Z,1025.19
2017-03-14T10:46:06.855Z,1025.14
2017-03-14T10:47:16.759Z,1025.11
2017-03-14T10:48:27.036Z,1025.13
2017-03-14T10:49:37.311Z,1025.16
2017-03-14T10:50:47.682Z,1025.18
2017-03-14T10:51:57.964Z,1025.21
2017-03-14T10:53:08.513Z,1025.09
2017-03-14T10:54:18.475Z,1025.1
2017-03-14T10:55:29.294Z,1025.04
2017-03-14T10:56:39.261Z,1025.06
2017-03-14T10:57:49.542Z,1025.09
2017-03-14T10:58:59.753Z,1025.1
2017-03-14T11:00:09.715Z,1025.15
2017-03-14T11:01:19.706Z,1025.12
2017-03-14T11:02:29.977Z,1025.15
2017-03-14T11:03:40.288Z,1025.09
2017-03-14T11:04:49.912Z,1025.03
2017-03-14T11:06:00.280Z,1025
2017-03-14T11:07:10.260Z,1024.99
2017-03-14T11:08:20.534Z,1024.98
2017-03-14T11:09:29.864Z,1024.97
2017-03-14T11:10:40.096Z,1025.01
2017-03-14T11:11:50.390Z,1024.97
2017-03-14T11:13:00.364Z,1024.97
2017-03-14T11:14:10.323Z,1024.93
2017-03-14T11:15:20.300Z,1024.88
2017-03-14T11:16:30.552Z,1024.84
2017-03-14T11:17:40.197Z,1024.86
2017-03-14T11:18:50.482Z,1024.82
2017-03-14T11:20:00.127Z,1024.76
2017-03-14T11:21:09.788Z,1024.75
2017-03-14T11:22:20.311Z,1024.73
2017-03-14T11:23:30.274Z,1024.72
2017-03-14T11:24:40.554Z,1024.67
2017-03-14T11:25:50.510Z,1024.65
2017-03-14T11:27:00.772Z,1024.67
2017-03-14T11:28:11.305Z,1024.67
2017-03-14T11:29:20.955Z,1024.67
2017-03-14T11:30:31.235Z,1024.65
2017-03-14T11:31:41.212Z,1024.69
2017-03-14T11:32:50.865Z,1024.71
2017-03-14T11:34:01.075Z,1024.66
2017-03-14T11:35:10.739Z,1024.69
2017-03-14T11:36:20.395Z,1024.72
2017-03-14T11:37:30.043Z,1024.69
2017-03-14T11:38:40.379Z,1024.62
2017-03-14T11:39:50.610Z,1024.63
2017-03-14T11:41:00.898Z,1024.61
2017-03-14T11:42:11.457Z,1024.61
2017-03-14T11:43:21.426Z,1024.54
2017-03-14T11:44:31.697Z,1024.66
2017-03-14T11:45:41.900Z,1024.65
2017-03-14T11:46:51.862Z,1024.64
2017-03-14T11:48:02.159Z,1024.67
2017-03-14T11:49:12.114Z,1024.67
2017-03-14T11:50:22.434Z,1024.61
2017-03-14T11:51:32.707Z,1024.68
2017-03-14T11:52:42.999Z,1024.63
2017-03-14T11:53:53.272Z,1024.6
2017-03-14T11:55:03.561Z,1024.62
2017-03-14T11:56:14.102Z,1024.68
2017-03-14T11:57:24.385Z,1024.67
2017-03-14T11:58:34.668Z,1024.62
2017-03-14T11:59:44.644Z,1024.63
2017-03-14T12:00:54.593Z,1024.67
2017-03-14T12:02:04.810Z,1024.72
2017-03-14T12:03:14.774Z,1024.71
2017-03-14T12:04:25.067Z,1024.65
2017-03-14T12:05:35.331Z,1024.64
2017-03-14T12:06:45.291Z,1024.62
2017-03-14T12:07:55.538Z,1024.63
2017-03-14T12:09:05.805Z,1024.62
2017-03-14T12:10:15.462Z,1024.53
2017-03-14T12:11:25.132Z,1024.55
2017-03-14T12:12:35.412Z,1024.54
2017-03-14T12:13:45.931Z,1024.46
2017-03-14T12:14:55.581Z,1024.48
2017-03-14T12:16:05.871Z,1024.47
2017-03-14T12:17:15.828Z,1024.43
2017-03-14T12:18:26.089Z,1024.43
2017-03-14T12:19:36.633Z,1024.43
2017-03-14T12:20:46.589Z,1024.41
2017-03-14T12:21:56.880Z,1024.45
2017-03-14T12:23:07.173Z,1024.44
2017-03-14T12:24:17.462Z,1024.47
2017-03-14T12:25:27.678Z,1024.49
2017-03-14T12:26:37.670Z,1024.5
2017-03-14T12:27:47.943Z,1024.44
2017-03-14T12:28:58.239Z,1024.47
2017-03-14T12:30:08.203Z,1024.54
2017-03-14T12:31:18.758Z,1024.49
2017-03-14T12:32:28.966Z,1024.44
2017-03-14T12:33:38.969Z,1024.47
2017-03-14T12:34:49.237Z,1024.5
2017-03-14T12:35:59.506Z,1024.48
2017-03-14T12:37:09.459Z,1024.53
2017-03-14T12:38:19.733Z,1024.52
2017-03-14T12:39:30.010Z,1024.5
2017-03-14T12:40:40.273Z,1024.48
2017-03-14T12:41:50.243Z,1024.46
2017-03-14T12:43:00.846Z,1024.44
2017-03-14T12:44:10.855Z,1024.43
2017-03-14T12:45:21.144Z,1024.44
2017-03-14T12:46:31.102Z,1024.39
2017-03-14T12:47:41.405Z,1024.4
2017-03-14T12:48:51.946Z,1024.34
2017-03-14T12:50:02.120Z,1024.41
2017-03-14T12:51:12.083Z,1024.4
2017-03-14T12:52:21.765Z,1024.37
2017-03-14T12:53:31.732Z,1024.35
2017-03-14T12:54:41.719Z,1024.41
2017-03-14T12:55:51.706Z,1024.4
2017-03-14T12:57:01.687Z,1024.33
2017-03-14T12:58:11.737Z,1024.33
2017-03-14T12:59:21.739Z,1024.33
2017-03-14T13:00:32.593Z,1024.4
2017-03-14T13:01:42.555Z,1024.38
2017-03-14T13:02:52.894Z,1024.38
2017-03-14T13:04:02.276Z,1024.38
2017-03-14T13:05:12.228Z,1024.37
2017-03-14T13:06:22.843Z,1024.35
2017-03-14T13:07:32.820Z,1024.33
2017-03-14T13:08:43.115Z,1024.37
2017-03-14T13:09:53.396Z,1024.34
2017-03-14T13:11:03.587Z,1024.34
2017-03-14T13:12:13.834Z,1024.37
2017-03-14T13:13:23.485Z,1024.35
2017-03-14T13:14:33.760Z,1024.31
2017-03-14T13:15:44.077Z,1024.33
2017-03-14T13:16:54.380Z,1024.32
2017-03-14T13:18:04.919Z,1024.29
2017-03-14T13:19:15.233Z,1024.31
2017-03-14T13:20:25.297Z,1024.33
2017-03-14T13:21:35.571Z,1024.28
2017-03-14T13:22:45.208Z,1024.29
2017-03-14T13:23:55.494Z,1024.28
2017-03-14T13:25:05.828Z,1024.32
2017-03-14T13:26:16.089Z,1024.29
2017-03-14T13:27:26.087Z,1024.28
2017-03-14T13:28:35.758Z,1024.27
2017-03-14T13:29:46.334Z,1024.25
2017-03-14T13:30:56.611Z,1024.26
2017-03-14T13:32:06.870Z,1024.25
2017-03-14T13:33:16.899Z,1024.26
2017-03-14T13:34:26.553Z,1024.3
2017-03-14T13:35:37.077Z,1024.32
2017-03-14T13:36:47.355Z,1024.26
2017-03-14T13:37:57.358Z,1024.31
2017-03-14T13:39:07.320Z,1024.28
2017-03-14T13:40:17.618Z,1024.28
2017-03-14T13:41:28.225Z,1024.29
2017-03-14T13:42:37.882Z,1024.27
2017-03-14T13:43:47.220Z,1024.25
2017-03-14T13:44:57.196Z,1024.26
2017-03-14T13:46:07.190Z,1024.22
2017-03-14T13:47:17.422Z,1024.23
2017-03-14T13:48:27.787Z,1024.18
2017-03-14T13:49:38.211Z,1024.18
2017-03-14T13:50:48.517Z,1024.17
2017-03-14T13:51:58.797Z,1024.18
2017-03-14T13:53:09.369Z,1024.19
2017-03-14T13:54:19.038Z,1024.2
2017-03-14T13:55:29.031Z,1024.16
2017-03-14T13:56:38.980Z,1024.15
2017-03-14T13:57:49.267Z,1024.12
2017-03-14T13:58:59.823Z,1024.13
2017-03-14T14:00:09.796Z,1024.13
2017-03-14T14:01:20.069Z,1024.08
2017-03-14T14:02:29.719Z,1024.06
2017-03-14T14:03:39.688Z,1024.03
2017-03-14T14:04:49.293Z,1024.04
2017-03-14T14:05:59.607Z,1024.03
2017-03-14T14:07:09.893Z,1024.03
2017-03-14T14:08:19.854Z,1023.95
2017-03-14T14:09:30.131Z,1023.96
2017-03-14T14:10:40.963Z,1023.96
2017-03-14T14:11:50.649Z,1023.93
2017-03-14T14:13:00.301Z,1023.94
2017-03-14T14:14:10.580Z,1023.9